sensor_id;sensor_type;location;lat;lon;timestamp;P1;durP1;ratioP1;P2;durP2;ratioP2
17636;SDS011;8937;51.236;6.794;2022-11-11T00:07:50;2.77;;;2.53;;
17636;SDS011;8937;51.236;6.794;2022-11-11T00:16:14;5.60;;;3.10;;
17636;SDS011;8937;51.236;6.794;2022-11-11T00:24:36;3.03;;;2.73;;
17636;SDS011;8937;51.236;6.794;2022-11-11T00:33:16;4.37;;;3.00;;
17636;SDS011;8937;51.236;6.794;2022-11-11T00:41:37;4.53;;;3.37;;
17636;SDS011;8937;51.236;6.794;2022-11-11T00:50:00;4.10;;;3.00;;
17636;SDS011;8937;51.236;6.794;2022-11-11T00:58:39;4.60;;;2.90;;
17636;SDS011;8937;51.236;6.794;2022-11-11T01:07:01;5.83;;;3.13;;
17636;SDS011;8937;51.236;6.794;2022-11-11T01:15:23;5.97;;;3.40;;
17636;SDS011;8937;51.236;6.794;2022-11-11T01:23:46;3.63;;;2.97;;
17636;SDS011;8937;51.236;6.794;2022-11-11T01:32:07;6.17;;;2.87;;
17636;SDS011;8937;51.236;6.794;2022-11-11T01:40:30;4.47;;;2.97;;
17636;SDS011;8937;51.236;6.794;2022-11-11T01:48:52;3.73;;;3.23;;
17636;SDS011;8937;51.236;6.794;2022-11-11T01:57:33;3.43;;;2.90;;
17636;SDS011;8937;51.236;6.794;2022-11-11T02:05:57;5.37;;;3.10;;
17636;SDS011;8937;51.236;6.794;2022-11-11T02:14:19;5.27;;;2.50;;
17636;SDS011;8937;51.236;6.794;2022-11-11T02:22:57;3.40;;;2.80;;
17636;SDS011;8937;51.236;6.794;2022-11-11T02:31:21;3.87;;;3.23;;
17636;SDS011;8937;51.236;6.794;2022-11-11T02:39:46;3.10;;;2.73;;
17636;SDS011;8937;51.236;6.794;2022-11-11T02:48:09;6.50;;;3.30;;
17636;SDS011;8937;51.236;6.794;2022-11-11T02:56:30;3.20;;;2.67;;
17636;SDS011;8937;51.236;6.794;2022-11-11T03:05:10;5.23;;;3.07;;
17636;SDS011;8937;51.236;6.794;2022-11-11T03:13:32;4.63;;;3.10;;
17636;SDS011;8937;51.236;6.794;2022-11-11T03:21:54;4.27;;;2.60;;
17636;SDS011;8937;51.236;6.794;2022-11-11T03:30:16;4.43;;;3.27;;
17636;SDS011;8937;51.236;6.794;2022-11-11T03:38:39;4.73;;;2.87;;
17636;SDS011;8937;51.236;6.794;2022-11-11T03:47:00;3.87;;;2.93;;
17636;SDS011;8937;51.236;6.794;2022-11-11T03:55:23;3.40;;;3.10;;
17636;SDS011;8937;51.236;6.794;2022-11-11T04:03:44;4.53;;;3.30;;
17636;SDS011;8937;51.236;6.794;2022-11-11T04:12:39;3.50;;;2.90;;
17636;SDS011;8937;51.236;6.794;2022-11-11T04:21:15;3.83;;;2.90;;
17636;SDS011;8937;51.236;6.794;2022-11-11T04:29:56;4.63;;;2.90;;
17636;SDS011;8937;51.236;6.794;2022-11-11T04:38:17;3.77;;;3.17;;
17636;SDS011;8937;51.236;6.794;2022-11-11T04:46:57;4.43;;;2.83;;
17636;SDS011;8937;51.236;6.794;2022-11-11T04:55:18;3.60;;;2.67;;
17636;SDS011;8937;51.236;6.794;2022-11-11T05:03:59;3.37;;;2.83;;
17636;SDS011;8937;51.236;6.794;2022-11-11T05:12:20;2.73;;;2.53;;
17636;SDS011;8937;51.236;6.794;2022-11-11T05:20:43;3.83;;;3.27;;
17636;SDS011;8937;51.236;6.794;2022-11-11T05:29:25;4.60;;;2.77;;
17636;SDS011;8937;51.236;6.794;2022-11-11T05:37:48;3.37;;;2.70;;
17636;SDS011;8937;51.236;6.794;2022-11-11T05:46:29;3.20;;;2.90;;
17636;SDS011;8937;51.236;6.794;2022-11-11T05:54:52;3.03;;;2.73;;
17636;SDS011;8937;51.236;6.794;2022-11-11T06:03:14;3.33;;;2.70;;
17636;SDS011;8937;51.236;6.794;2022-11-11T06:11:36;3.27;;;2.43;;
17636;SDS011;8937;51.236;6.794;2022-11-11T06:19:58;2.83;;;2.50;;
17636;SDS011;8937;51.236;6.794;2022-11-11T06:28:20;5.10;;;2.87;;
17636;SDS011;8937;51.236;6.794;2022-11-11T06:36:42;2.43;;;2.23;;
17636;SDS011;8937;51.236;6.794;2022-11-11T06:45:05;3.23;;;2.57;;
17636;SDS011;8937;51.236;6.794;2022-11-11T06:53:27;6.50;;;3.20;;
17636;SDS011;8937;51.236;6.794;2022-11-11T07:01:50;4.83;;;3.03;;
17636;SDS011;8937;51.236;6.794;2022-11-11T07:10:11;2.90;;;2.70;;
17636;SDS011;8937;51.236;6.794;2022-11-11T07:18:35;3.20;;;2.90;;
17636;SDS011;8937;51.236;6.794;2022-11-11T07:26:57;2.93;;;2.27;;
17636;SDS011;8937;51.236;6.794;2022-11-11T07:35:22;8.70;;;3.43;;
17636;SDS011;8937;51.236;6.794;2022-11-11T07:43:44;3.57;;;3.00;;
17636;SDS011;8937;51.236;6.794;2022-11-11T07:52:06;4.33;;;2.87;;
17636;SDS011;8937;51.236;6.794;2022-11-11T08:00:28;3.77;;;2.97;;
17636;SDS011;8937;51.236;6.794;2022-11-11T08:08:50;7.93;;;3.67;;
17636;SDS011;8937;51.236;6.794;2022-11-11T08:17:12;5.87;;;3.57;;
17636;SDS011;8937;51.236;6.794;2022-11-11T08:25:35;3.37;;;2.87;;
17636;SDS011;8937;51.236;6.794;2022-11-11T08:33:57;4.70;;;3.30;;
17636;SDS011;8937;51.236;6.794;2022-11-11T08:42:20;3.50;;;3.07;;
17636;SDS011;8937;51.236;6.794;2022-11-11T08:50:41;4.50;;;3.30;;
17636;SDS011;8937;51.236;6.794;2022-11-11T08:59:04;3.23;;;2.87;;
17636;SDS011;8937;51.236;6.794;2022-11-11T09:07:25;3.30;;;3.00;;
17636;SDS011;8937;51.236;6.794;2022-11-11T09:15:48;4.30;;;3.30;;
17636;SDS011;8937;51.236;6.794;2022-11-11T09:24:09;4.33;;;2.87;;
17636;SDS011;8937;51.236;6.794;2022-11-11T09:32:32;3.27;;;2.97;;
17636;SDS011;8937;51.236;6.794;2022-11-11T09:41:00;3.33;;;3.00;;
17636;SDS011;8937;51.236;6.794;2022-11-11T09:49:40;3.70;;;2.90;;
17636;SDS011;8937;51.236;6.794;2022-11-11T09:58:03;2.83;;;2.60;;
17636;SDS011;8937;51.236;6.794;2022-11-11T10:06:27;2.70;;;2.47;;
17636;SDS011;8937;51.236;6.794;2022-11-11T10:14:50;3.83;;;2.73;;
17636;SDS011;8937;51.236;6.794;2022-11-11T10:23:14;5.23;;;2.87;;
17636;SDS011;8937;51.236;6.794;2022-11-11T10:31:35;5.10;;;2.80;;
17636;SDS011;8937;51.236;6.794;2022-11-11T10:39:59;6.47;;;2.57;;
17636;SDS011;8937;51.236;6.794;2022-11-11T10:48:22;2.67;;;2.47;;
17636;SDS011;8937;51.236;6.794;2022-11-11T10:56:47;3.80;;;2.47;;
17636;SDS011;8937;51.236;6.794;2022-11-11T11:05:12;3.73;;;2.43;;
17636;SDS011;8937;51.236;6.794;2022-11-11T11:13:38;2.17;;;2.07;;
17636;SDS011;8937;51.236;6.794;2022-11-11T11:22:01;2.90;;;2.23;;
17636;SDS011;8937;51.236;6.794;2022-11-11T11:30:24;3.37;;;2.40;;
17636;SDS011;8937;51.236;6.794;2022-11-11T11:38:47;7.50;;;2.37;;
17636;SDS011;8937;51.236;6.794;2022-11-11T11:47:15;4.17;;;2.30;;
17636;SDS011;8937;51.236;6.794;2022-11-11T11:55:41;3.03;;;2.37;;
17636;SDS011;8937;51.236;6.794;2022-11-11T12:04:23;2.57;;;2.20;;
17636;SDS011;8937;51.236;6.794;2022-11-11T12:12:53;2.30;;;2.10;;
17636;SDS011;8937;51.236;6.794;2022-11-11T12:21:19;2.43;;;2.20;;
17636;SDS011;8937;51.236;6.794;2022-11-11T12:29:48;3.97;;;2.03;;
17636;SDS011;8937;51.236;6.794;2022-11-11T12:38:19;2.70;;;2.13;;
17636;SDS011;8937;51.236;6.794;2022-11-11T12:46:50;2.73;;;2.00;;
17636;SDS011;8937;51.236;6.794;2022-11-11T12:55:16;1.93;;;1.83;;
17636;SDS011;8937;51.236;6.794;2022-11-11T13:03:43;2.40;;;2.20;;
17636;SDS011;8937;51.236;6.794;2022-11-11T13:12:11;1.67;;;1.57;;
17636;SDS011;8937;51.236;6.794;2022-11-11T13:20:39;1.87;;;1.67;;
17636;SDS011;8937;51.236;6.794;2022-11-11T13:29:20;1.57;;;1.43;;
17636;SDS011;8937;51.236;6.794;2022-11-11T13:37:46;1.57;;;1.47;;
17636;SDS011;8937;51.236;6.794;2022-11-11T13:46:26;1.87;;;1.53;;
17636;SDS011;8937;51.236;6.794;2022-11-11T13:54:51;3.03;;;1.63;;
17636;SDS011;8937;51.236;6.794;2022-11-11T14:03:28;1.63;;;1.43;;
17636;SDS011;8937;51.236;6.794;2022-11-11T14:11:50;1.33;;;1.20;;
17636;SDS011;8937;51.236;6.794;2022-11-11T14:28:53;3.03;;;1.60;;
17636;SDS011;8937;51.236;6.794;2022-11-11T14:37:19;2.60;;;1.50;;
17636;SDS011;8937;51.236;6.794;2022-11-11T14:45:52;2.03;;;1.43;;
17636;SDS011;8937;51.236;6.794;2022-11-11T14:54:20;1.60;;;1.50;;
17636;SDS011;8937;51.236;6.794;2022-11-11T15:02:45;1.73;;;1.63;;
17636;SDS011;8937;51.236;6.794;2022-11-11T15:11:12;3.40;;;1.50;;
17636;SDS011;8937;51.236;6.794;2022-11-11T15:19:39;1.73;;;1.63;;
17636;SDS011;8937;51.236;6.794;2022-11-11T15:28:06;2.50;;;1.73;;
17636;SDS011;8937;51.236;6.794;2022-11-11T15:36:41;1.63;;;1.53;;
17636;SDS011;8937;51.236;6.794;2022-11-11T15:45:05;2.00;;;1.53;;
17636;SDS011;8937;51.236;6.794;2022-11-11T15:53:29;1.67;;;1.40;;
17636;SDS011;8937;51.236;6.794;2022-11-11T16:01:50;1.40;;;1.30;;
17636;SDS011;8937;51.236;6.794;2022-11-11T16:10:14;2.77;;;1.10;;
17636;SDS011;8937;51.236;6.794;2022-11-11T16:18:37;1.50;;;1.40;;
17636;SDS011;8937;51.236;6.794;2022-11-11T16:27:03;6.27;;;3.03;;
17636;SDS011;8937;51.236;6.794;2022-11-11T16:35:34;1.73;;;1.63;;
17636;SDS011;8937;51.236;6.794;2022-11-11T16:43:57;2.00;;;1.80;;
17636;SDS011;8937;51.236;6.794;2022-11-11T16:52:19;1.73;;;1.60;;
17636;SDS011;8937;51.236;6.794;2022-11-11T17:00:43;2.03;;;1.80;;
17636;SDS011;8937;51.236;6.794;2022-11-11T17:09:13;2.00;;;1.80;;
17636;SDS011;8937;51.236;6.794;2022-11-11T17:17:47;2.97;;;1.80;;
17636;SDS011;8937;51.236;6.794;2022-11-11T17:26:09;3.00;;;1.30;;
17636;SDS011;8937;51.236;6.794;2022-11-11T17:34:32;1.90;;;1.67;;
17636;SDS011;8937;51.236;6.794;2022-11-11T17:42:53;1.83;;;1.73;;
17636;SDS011;8937;51.236;6.794;2022-11-11T17:51:16;1.73;;;1.63;;
17636;SDS011;8937;51.236;6.794;2022-11-11T17:59:38;1.90;;;1.80;;
17636;SDS011;8937;51.236;6.794;2022-11-11T18:08:01;2.53;;;1.97;;
17636;SDS011;8937;51.236;6.794;2022-11-11T18:16:22;2.90;;;2.00;;
17636;SDS011;8937;51.236;6.794;2022-11-11T18:24:45;3.20;;;1.90;;
17636;SDS011;8937;51.236;6.794;2022-11-11T18:33:06;4.50;;;2.00;;
17636;SDS011;8937;51.236;6.794;2022-11-11T18:41:29;3.73;;;2.50;;
17636;SDS011;8937;51.236;6.794;2022-11-11T18:49:51;2.03;;;1.93;;
17636;SDS011;8937;51.236;6.794;2022-11-11T18:58:13;2.53;;;2.23;;
17636;SDS011;8937;51.236;6.794;2022-11-11T19:06:35;2.83;;;2.50;;
17636;SDS011;8937;51.236;6.794;2022-11-11T19:14:59;3.90;;;2.43;;
17636;SDS011;8937;51.236;6.794;2022-11-11T19:23:20;2.33;;;2.10;;
17636;SDS011;8937;51.236;6.794;2022-11-11T19:31:43;3.40;;;2.40;;
17636;SDS011;8937;51.236;6.794;2022-11-11T19:40:05;5.43;;;2.57;;
17636;SDS011;8937;51.236;6.794;2022-11-11T19:48:28;3.40;;;2.70;;
17636;SDS011;8937;51.236;6.794;2022-11-11T19:56:50;4.40;;;2.70;;
17636;SDS011;8937;51.236;6.794;2022-11-11T20:05:12;2.40;;;2.23;;
17636;SDS011;8937;51.236;6.794;2022-11-11T20:13:34;4.47;;;2.60;;
17636;SDS011;8937;51.236;6.794;2022-11-11T20:21:58;3.57;;;2.53;;
17636;SDS011;8937;51.236;6.794;2022-11-11T20:30:24;3.30;;;2.80;;
17636;SDS011;8937;51.236;6.794;2022-11-11T20:38:47;3.43;;;2.70;;
17636;SDS011;8937;51.236;6.794;2022-11-11T20:47:09;3.30;;;2.80;;
17636;SDS011;8937;51.236;6.794;2022-11-11T20:55:32;3.63;;;2.77;;
17636;SDS011;8937;51.236;6.794;2022-11-11T21:03:53;13.87;;;3.20;;
17636;SDS011;8937;51.236;6.794;2022-11-11T21:12:17;2.97;;;2.40;;
17636;SDS011;8937;51.236;6.794;2022-11-11T21:20:38;2.77;;;2.50;;
17636;SDS011;8937;51.236;6.794;2022-11-11T21:29:01;3.83;;;2.60;;
17636;SDS011;8937;51.236;6.794;2022-11-11T21:37:22;2.67;;;2.47;;
17636;SDS011;8937;51.236;6.794;2022-11-11T21:45:45;3.17;;;2.43;;
17636;SDS011;8937;51.236;6.794;2022-11-11T21:54:07;3.33;;;2.50;;
17636;SDS011;8937;51.236;6.794;2022-11-11T22:02:30;3.20;;;2.90;;
17636;SDS011;8937;51.236;6.794;2022-11-11T22:10:51;3.90;;;3.23;;
17636;SDS011;8937;51.236;6.794;2022-11-11T22:19:15;3.37;;;3.07;;
17636;SDS011;8937;51.236;6.794;2022-11-11T22:27:37;3.50;;;3.20;;
17636;SDS011;8937;51.236;6.794;2022-11-11T22:36:00;4.10;;;2.63;;
17636;SDS011;8937;51.236;6.794;2022-11-11T22:44:21;3.70;;;2.90;;
17636;SDS011;8937;51.236;6.794;2022-11-11T22:52:47;4.57;;;2.70;;
17636;SDS011;8937;51.236;6.794;2022-11-11T23:01:09;4.60;;;2.70;;
17636;SDS011;8937;51.236;6.794;2022-11-11T23:09:32;3.30;;;3.00;;
17636;SDS011;8937;51.236;6.794;2022-11-11T23:17:58;4.70;;;2.90;;
17636;SDS011;8937;51.236;6.794;2022-11-11T23:26:22;2.97;;;2.57;;
17636;SDS011;8937;51.236;6.794;2022-11-11T23:34:43;3.00;;;2.70;;
17636;SDS011;8937;51.236;6.794;2022-11-11T23:43:06;2.47;;;2.33;;
17636;SDS011;8937;51.236;6.794;2022-11-11T23:51:28;3.97;;;3.03;;
17636;SDS011;8937;51.236;6.794;2022-11-11T23:59:50;3.20;;;2.90;;
